Terminal Aerodrome Forecast
Issued by NWS Bismarck, ND

Home | Current Version | Previous Version | Graphics & Text | Print | Product List | Glossary On
Versions: 1 2 3 4 5 6 7 8 9 10 11 12 13 14
733
FTUS43 KBIS 221554 AAA
TAFBIS
TAF AMD
KBIS 221554Z 2216/2312 31015G25KT P6SM BKN100
     FM221700 30020G28KT P6SM FEW070 FEW200
     FM222100 30023G33KT P6SM FEW090 FEW200
     FM230900 31011KT P6SM SCT030 BKN040=

USA.gov is the U.S. government's official web portal to all federal, state and local government web resources and services.